BAW913 EGLL-LSGG
Flight info
| Callsign | BAW913 |
|---|---|
| Flight time | N/A |
| Altitude | 37000 |
| Route | MODMI M185 MID UL612 VEULE DCT PEKIM DCT PILUL DCT PIMUP/N0424F270 DCT PIXIS DCT PIBAT/N0398F230 DCT LUSAR |
| Aircraft | A320/M-SDE3FGHIRWY/LB1 |
Departure
| Time | 2026-05-07 14:42 |
|---|---|
| Airport | London Heathrow Airport (EGLL) |
Arrival
| Time | N/A |
|---|---|
| Airport | Geneva International Airport (LSGG) |
| Time | Latitude | Longitude | Altitude | Speed | Heading |
|---|---|---|---|---|---|
| 2026-05-07 14:16 | 51.47232 | -0.48588 | 87 ft | 0 kts | 270° |
| 2026-05-07 14:26 | 51.47232 | -0.48580 | 90 ft | 4 kts | 269° |
| 2026-05-07 14:26 | 51.47234 | -0.48539 | 89 ft | 4 kts | 258° |
| 2026-05-07 14:26 | 51.47241 | -0.48501 | 88 ft | 4 kts | 237° |
| 2026-05-07 14:27 | 51.47257 | -0.48477 | 89 ft | 3 kts | 185° |
| 2026-05-07 14:27 | 51.47265 | -0.48476 | 89 ft | 0 kts | 179° |
| 2026-05-07 14:30 | 51.47241 | -0.48476 | 89 ft | 7 kts | 179° |
| 2026-05-07 14:30 | 51.47187 | -0.48475 | 87 ft | 9 kts | 179° |
| 2026-05-07 14:31 | 51.47116 | -0.48475 | 87 ft | 11 kts | 179° |
| 2026-05-07 14:31 | 51.47029 | -0.48474 | 87 ft | 14 kts | 179° |
| 2026-05-07 14:31 | 51.46925 | -0.48473 | 87 ft | 16 kts | 179° |
| 2026-05-07 14:31 | 51.46831 | -0.48472 | 88 ft | 6 kts | 180° |
| 2026-05-07 14:32 | 51.46825 | -0.48472 | 88 ft | 0 kts | 180° |
| 2026-05-07 14:32 | 51.46817 | -0.48472 | 89 ft | 2 kts | 180° |
| 2026-05-07 14:32 | 51.46791 | -0.48472 | 90 ft | 5 kts | 180° |
| 2026-05-07 14:33 | 51.46752 | -0.48498 | 88 ft | 8 kts | 230° |
| 2026-05-07 14:33 | 51.46741 | -0.48595 | 87 ft | 10 kts | 268° |
| 2026-05-07 14:33 | 51.46738 | -0.48701 | 87 ft | 8 kts | 259° |
| 2026-05-07 14:33 | 51.46692 | -0.48749 | 89 ft | 9 kts | 182° |
| 2026-05-07 14:34 | 51.46643 | -0.48750 | 87 ft | 0 kts | 182° |
| 2026-05-07 14:36 | 51.46639 | -0.48751 | 87 ft | 2 kts | 183° |
| 2026-05-07 14:36 | 51.46617 | -0.48758 | 89 ft | 5 kts | 198° |
| 2026-05-07 14:36 | 51.46593 | -0.48772 | 88 ft | 0 kts | 200° |
| 2026-05-07 14:38 | 51.46591 | -0.48773 | 87 ft | 1 kts | 200° |
| 2026-05-07 14:39 | 51.46569 | -0.48786 | 89 ft | 7 kts | 199° |
| 2026-05-07 14:39 | 51.46495 | -0.48757 | 88 ft | 15 kts | 134° |
| 2026-05-07 14:39 | 51.46477 | -0.48591 | 88 ft | 14 kts | 90° |
| 2026-05-07 14:39 | 51.46479 | -0.48425 | 89 ft | 13 kts | 89° |
| 2026-05-07 14:40 | 51.46479 | -0.48410 | 89 ft | 0 kts | 89° |
| 2026-05-07 14:41 | 51.46479 | -0.48408 | 89 ft | 1 kts | 89° |
| 2026-05-07 14:41 | 51.46480 | -0.48362 | 89 ft | 17 kts | 89° |
| 2026-05-07 14:41 | 51.46480 | -0.47750 | 86 ft | 89 kts | 90° |
| 2026-05-07 14:41 | 51.46487 | -0.46455 | 92 ft | 141 kts | 89° |
| 2026-05-07 14:42 | 51.46496 | -0.44708 | 306 ft | 164 kts | 89° |
| 2026-05-07 14:42 | 51.46505 | -0.42854 | 919 ft | 169 kts | 90° |
| 2026-05-07 14:42 | 51.46426 | -0.40902 | 1364 ft | 185 kts | 107° |
| 2026-05-07 14:42 | 51.45737 | -0.39094 | 1779 ft | 200 kts | 140° |
| 2026-05-07 14:43 | 51.44517 | -0.37943 | 2309 ft | 211 kts | 154° |
| 2026-05-07 14:43 | 51.43176 | -0.36832 | 2989 ft | 221 kts | 153° |
| 2026-05-07 14:43 | 51.41770 | -0.35707 | 3725 ft | 231 kts | 162° |
| 2026-05-07 14:43 | 51.40166 | -0.35354 | 4407 ft | 242 kts | 186° |
| 2026-05-07 14:44 | 51.38505 | -0.36082 | 5029 ft | 259 kts | 209° |
| 2026-05-07 14:44 | 51.36942 | -0.37621 | 5846 ft | 268 kts | 212° |
| 2026-05-07 14:44 | 51.35335 | -0.39190 | 6014 ft | 266 kts | 211° |
| 2026-05-07 14:44 | 51.33728 | -0.40615 | 6020 ft | 267 kts | 207° |
| 2026-05-07 14:45 | 51.32059 | -0.41929 | 6059 ft | 268 kts | 206° |
| 2026-05-07 14:45 | 51.30350 | -0.43212 | 6900 ft | 270 kts | 205° |
| 2026-05-07 14:45 | 51.28651 | -0.44483 | 7853 ft | 272 kts | 205° |
| 2026-05-07 14:45 | 51.26929 | -0.45791 | 8772 ft | 275 kts | 205° |
| 2026-05-07 14:46 | 51.25206 | -0.47131 | 9690 ft | 278 kts | 205° |
| 2026-05-07 14:46 | 51.23443 | -0.48522 | 10364 ft | 290 kts | 206° |
| 2026-05-07 14:46 | 51.21547 | -0.50017 | 10618 ft | 314 kts | 206° |
| 2026-05-07 14:46 | 51.19546 | -0.51576 | 10925 ft | 332 kts | 205° |
| 2026-05-07 14:47 | 51.17441 | -0.53204 | 11575 ft | 338 kts | 205° |
| 2026-05-07 14:47 | 51.15304 | -0.54854 | 12273 ft | 342 kts | 205° |
| 2026-05-07 14:47 | 51.13168 | -0.56501 | 12984 ft | 346 kts | 205° |
| 2026-05-07 14:47 | 51.10980 | -0.58186 | 13710 ft | 350 kts | 205° |
| 2026-05-07 14:48 | 51.09496 | -0.59210 | 14137 ft | 352 kts | 199° |
| 2026-05-07 14:48 | 51.06271 | -0.60112 | 14964 ft | 357 kts | 180° |
| 2026-05-07 14:48 | 51.04628 | -0.59919 | 15363 ft | 360 kts | 171° |
| 2026-05-07 14:48 | 51.01455 | -0.58207 | 16165 ft | 367 kts | 152° |
| 2026-05-07 14:49 | 50.99984 | -0.56728 | 16558 ft | 371 kts | 147° |
| 2026-05-07 14:49 | 50.97831 | -0.54419 | 17162 ft | 375 kts | 147° |
| 2026-05-07 14:49 | 50.95672 | -0.52115 | 17751 ft | 379 kts | 148° |
| 2026-05-07 14:49 | 50.93469 | -0.49771 | 18352 ft | 383 kts | 148° |
| 2026-05-07 14:50 | 50.91237 | -0.47401 | 18899 ft | 387 kts | 148° |
| 2026-05-07 14:50 | 50.88986 | -0.45010 | 19469 ft | 391 kts | 148° |
| 2026-05-07 14:50 | 50.86737 | -0.42621 | 20046 ft | 394 kts | 148° |
| 2026-05-07 14:50 | 50.84439 | -0.40185 | 20619 ft | 398 kts | 148° |
| 2026-05-07 14:51 | 50.82125 | -0.37735 | 21173 ft | 401 kts | 148° |
| 2026-05-07 14:51 | 50.79813 | -0.35292 | 21711 ft | 404 kts | 148° |
| 2026-05-07 14:51 | 50.77480 | -0.32827 | 22221 ft | 407 kts | 148° |
| 2026-05-07 14:51 | 50.75114 | -0.30329 | 22726 ft | 410 kts | 148° |
| 2026-05-07 14:52 | 50.72717 | -0.27804 | 23224 ft | 413 kts | 148° |
| 2026-05-07 14:52 | 50.70308 | -0.25272 | 23701 ft | 416 kts | 148° |
| 2026-05-07 14:52 | 50.67902 | -0.22744 | 24093 ft | 419 kts | 148° |
| 2026-05-07 14:52 | 50.65462 | -0.20182 | 24490 ft | 422 kts | 148° |
| 2026-05-07 14:53 | 50.63009 | -0.17613 | 24882 ft | 424 kts | 148° |
| 2026-05-07 14:53 | 50.60571 | -0.15063 | 25261 ft | 426 kts | 148° |
| 2026-05-07 14:53 | 50.58091 | -0.12473 | 25642 ft | 429 kts | 148° |
| 2026-05-07 14:53 | 50.55594 | -0.09870 | 26013 ft | 431 kts | 149° |
| 2026-05-07 14:54 | 50.53074 | -0.07248 | 26396 ft | 434 kts | 149° |
| 2026-05-07 14:54 | 50.51080 | -0.05174 | 26670 ft | 435 kts | 149° |